LTBU/TEQ METAR and TAF weather

Enter ICAO airport designator
Station Type Date Time Source
LTBU METAR 2020/09/30 14:50 UTC NOAA

LTBU 301450Z 30008KT 9999 FEW035 SCT080 21/07 Q1009


Station Type Date Time Source
LTBU Decoded METAR 2020/09/30 14:50 UTC NOAA

Corlu, Turkey (LTBU) 41-08N 027-55E
Sep 30, 2020 - 10:50 AM EDT / 2020.09.30 1450 UTC
Wind: from the WNW (300 degrees) at 9 MPH (8 KT):0
Visibility: greater than 7 mile(s):0
Sky conditions: partly cloudy
Temperature: 69 F (21 C)
Dew Point: 44 F (7 C)
Relative Humidity: 40%
Pressure (altimeter): 29.80 in. Hg (1009 hPa)
ob: LTBU 301450Z 30008KT 9999 FEW035 SCT080 21/07 Q1009
cycle: 15

Station Type Date Time Source
LTBU TAF 2020/09/30 12:03 UTC NOAA

TAF LTBU 301040Z 3012/0112 30007KT 9999 FEW035 SCT080
BECMG 3012/3015 CAVOK
BECMG 0106/0109 20012KT

Example: see airport list